sensor_id;sensor_type;location;lat;lon;timestamp;P1;durP1;ratioP1;P2;durP2;ratioP2
3022;SDS011;1521;53.584;9.938;2023-03-01T00:02:11;18.70;;;9.70;;
3022;SDS011;1521;53.584;9.938;2023-03-01T00:04:37;18.90;;;8.37;;
3022;SDS011;1521;53.584;9.938;2023-03-01T00:07:03;19.70;;;9.87;;
3022;SDS011;1521;53.584;9.938;2023-03-01T00:09:28;18.93;;;9.50;;
3022;SDS011;1521;53.584;9.938;2023-03-01T00:11:54;19.17;;;9.10;;
3022;SDS011;1521;53.584;9.938;2023-03-01T00:14:19;17.43;;;9.50;;
3022;SDS011;1521;53.584;9.938;2023-03-01T00:16:45;20.47;;;9.40;;
3022;SDS011;1521;53.584;9.938;2023-03-01T00:19:12;15.23;;;8.90;;
3022;SDS011;1521;53.584;9.938;2023-03-01T00:21:39;17.07;;;10.03;;
3022;SDS011;1521;53.584;9.938;2023-03-01T00:24:05;18.57;;;9.00;;
3022;SDS011;1521;53.584;9.938;2023-03-01T00:26:32;16.80;;;9.43;;
3022;SDS011;1521;53.584;9.938;2023-03-01T00:28:58;18.13;;;9.47;;
3022;SDS011;1521;53.584;9.938;2023-03-01T00:31:25;17.20;;;10.17;;
3022;SDS011;1521;53.584;9.938;2023-03-01T00:33:52;19.87;;;10.20;;
3022;SDS011;1521;53.584;9.938;2023-03-01T00:36:23;21.73;;;9.87;;
3022;SDS011;1521;53.584;9.938;2023-03-01T00:38:50;21.13;;;10.77;;
3022;SDS011;1521;53.584;9.938;2023-03-01T00:41:16;18.60;;;10.17;;
3022;SDS011;1521;53.584;9.938;2023-03-01T00:43:44;16.97;;;10.10;;
3022;SDS011;1521;53.584;9.938;2023-03-01T00:46:14;14.97;;;8.80;;
3022;SDS011;1521;53.584;9.938;2023-03-01T00:48:44;15.17;;;9.63;;
3022;SDS011;1521;53.584;9.938;2023-03-01T00:51:11;19.90;;;9.90;;
3022;SDS011;1521;53.584;9.938;2023-03-01T00:53:41;17.13;;;9.87;;
3022;SDS011;1521;53.584;9.938;2023-03-01T00:56:08;15.70;;;9.80;;
3022;SDS011;1521;53.584;9.938;2023-03-01T00:58:35;16.20;;;10.03;;
3022;SDS011;1521;53.584;9.938;2023-03-01T01:01:06;14.73;;;9.10;;
3022;SDS011;1521;53.584;9.938;2023-03-01T01:03:44;16.20;;;9.40;;
3022;SDS011;1521;53.584;9.938;2023-03-01T01:06:38;15.50;;;9.57;;
3022;SDS011;1521;53.584;9.938;2023-03-01T01:09:04;14.63;;;8.87;;
3022;SDS011;1521;53.584;9.938;2023-03-01T01:11:32;16.63;;;9.63;;
3022;SDS011;1521;53.584;9.938;2023-03-01T01:13:58;17.57;;;9.27;;
3022;SDS011;1521;53.584;9.938;2023-03-01T01:16:24;16.57;;;10.00;;
3022;SDS011;1521;53.584;9.938;2023-03-01T01:18:51;22.47;;;10.80;;
3022;SDS011;1521;53.584;9.938;2023-03-01T01:21:18;18.33;;;10.13;;
3022;SDS011;1521;53.584;9.938;2023-03-01T01:23:46;19.17;;;9.70;;
3022;SDS011;1521;53.584;9.938;2023-03-01T01:26:18;18.37;;;9.60;;
3022;SDS011;1521;53.584;9.938;2023-03-01T01:28:45;18.17;;;9.50;;
3022;SDS011;1521;53.584;9.938;2023-03-01T01:31:11;13.40;;;8.77;;
3022;SDS011;1521;53.584;9.938;2023-03-01T01:33:37;14.13;;;9.20;;
3022;SDS011;1521;53.584;9.938;2023-03-01T01:36:04;17.53;;;9.70;;
3022;SDS011;1521;53.584;9.938;2023-03-01T01:38:30;18.10;;;9.23;;
3022;SDS011;1521;53.584;9.938;2023-03-01T01:40:56;15.27;;;9.40;;
3022;SDS011;1521;53.584;9.938;2023-03-01T01:43:24;16.07;;;8.80;;
3022;SDS011;1521;53.584;9.938;2023-03-01T01:45:57;19.10;;;9.10;;
3022;SDS011;1521;53.584;9.938;2023-03-01T01:48:28;15.67;;;8.40;;
3022;SDS011;1521;53.584;9.938;2023-03-01T01:51:11;17.07;;;8.93;;
3022;SDS011;1521;53.584;9.938;2023-03-01T01:53:40;14.70;;;9.53;;
3022;SDS011;1521;53.584;9.938;2023-03-01T01:56:08;15.87;;;8.07;;
3022;SDS011;1521;53.584;9.938;2023-03-01T01:58:37;14.87;;;8.27;;
3022;SDS011;1521;53.584;9.938;2023-03-01T02:01:04;14.00;;;8.60;;
3022;SDS011;1521;53.584;9.938;2023-03-01T02:03:31;13.73;;;8.70;;
3022;SDS011;1521;53.584;9.938;2023-03-01T02:06:19;15.40;;;9.67;;
3022;SDS011;1521;53.584;9.938;2023-03-01T02:08:53;13.50;;;8.63;;
3022;SDS011;1521;53.584;9.938;2023-03-01T02:11:24;15.27;;;8.63;;
3022;SDS011;1521;53.584;9.938;2023-03-01T02:13:51;16.00;;;9.97;;
3022;SDS011;1521;53.584;9.938;2023-03-01T02:16:18;15.10;;;9.47;;
3022;SDS011;1521;53.584;9.938;2023-03-01T02:18:45;18.53;;;9.40;;
3022;SDS011;1521;53.584;9.938;2023-03-01T02:21:20;18.93;;;9.20;;
3022;SDS011;1521;53.584;9.938;2023-03-01T02:23:53;14.20;;;9.20;;
3022;SDS011;1521;53.584;9.938;2023-03-01T02:26:22;15.30;;;8.50;;
3022;SDS011;1521;53.584;9.938;2023-03-01T02:29:07;16.23;;;9.70;;
3022;SDS011;1521;53.584;9.938;2023-03-01T02:31:33;14.23;;;8.17;;
3022;SDS011;1521;53.584;9.938;2023-03-01T02:34:11;13.30;;;8.10;;
3022;SDS011;1521;53.584;9.938;2023-03-01T02:36:49;15.17;;;8.00;;
3022;SDS011;1521;53.584;9.938;2023-03-01T02:39:22;12.13;;;8.13;;
3022;SDS011;1521;53.584;9.938;2023-03-01T02:41:52;13.37;;;8.27;;
3022;SDS011;1521;53.584;9.938;2023-03-01T02:44:20;15.30;;;8.93;;
3022;SDS011;1521;53.584;9.938;2023-03-01T02:46:47;11.33;;;7.87;;
3022;SDS011;1521;53.584;9.938;2023-03-01T02:49:22;15.43;;;9.27;;
3022;SDS011;1521;53.584;9.938;2023-03-01T02:57:32;18.23;;;8.27;;
3022;SDS011;1521;53.584;9.938;2023-03-01T03:00:02;12.40;;;8.00;;
3022;SDS011;1521;53.584;9.938;2023-03-01T03:02:33;11.80;;;7.90;;
3022;SDS011;1521;53.584;9.938;2023-03-01T03:07:37;10.87;;;7.50;;
3022;SDS011;1521;53.584;9.938;2023-03-01T03:10:05;16.20;;;8.87;;
3022;SDS011;1521;53.584;9.938;2023-03-01T03:12:33;12.47;;;7.60;;
3022;SDS011;1521;53.584;9.938;2023-03-01T03:14:58;14.20;;;8.27;;
3022;SDS011;1521;53.584;9.938;2023-03-01T03:17:24;13.70;;;8.40;;
3022;SDS011;1521;53.584;9.938;2023-03-01T03:19:50;15.43;;;8.13;;
3022;SDS011;1521;53.584;9.938;2023-03-01T03:22:15;14.83;;;8.17;;
3022;SDS011;1521;53.584;9.938;2023-03-01T03:24:41;12.57;;;7.60;;
3022;SDS011;1521;53.584;9.938;2023-03-01T03:27:07;16.93;;;7.70;;
3022;SDS011;1521;53.584;9.938;2023-03-01T03:29:33;12.50;;;7.40;;
3022;SDS011;1521;53.584;9.938;2023-03-01T03:31:59;12.83;;;7.87;;
3022;SDS011;1521;53.584;9.938;2023-03-01T03:34:24;10.40;;;7.73;;
3022;SDS011;1521;53.584;9.938;2023-03-01T03:36:54;13.67;;;7.80;;
3022;SDS011;1521;53.584;9.938;2023-03-01T03:39:24;10.17;;;7.37;;
3022;SDS011;1521;53.584;9.938;2023-03-01T03:41:51;11.30;;;7.37;;
3022;SDS011;1521;53.584;9.938;2023-03-01T03:44:18;11.80;;;7.27;;
3022;SDS011;1521;53.584;9.938;2023-03-01T03:46:43;11.23;;;6.37;;
3022;SDS011;1521;53.584;9.938;2023-03-01T03:49:09;13.87;;;6.63;;
3022;SDS011;1521;53.584;9.938;2023-03-01T03:51:34;11.30;;;6.73;;
3022;SDS011;1521;53.584;9.938;2023-03-01T03:54:00;10.23;;;6.60;;
3022;SDS011;1521;53.584;9.938;2023-03-01T03:56:26;14.40;;;6.30;;
3022;SDS011;1521;53.584;9.938;2023-03-01T03:58:52;11.57;;;6.90;;
3022;SDS011;1521;53.584;9.938;2023-03-01T04:01:17;8.60;;;6.23;;
3022;SDS011;1521;53.584;9.938;2023-03-01T04:03:43;9.47;;;6.00;;
3022;SDS011;1521;53.584;9.938;2023-03-01T04:06:12;12.47;;;6.80;;
3022;SDS011;1521;53.584;9.938;2023-03-01T04:08:38;8.07;;;5.90;;
3022;SDS011;1521;53.584;9.938;2023-03-01T04:11:04;13.90;;;6.83;;
3022;SDS011;1521;53.584;9.938;2023-03-01T04:13:50;9.60;;;5.80;;
3022;SDS011;1521;53.584;9.938;2023-03-01T04:16:16;11.47;;;6.27;;
3022;SDS011;1521;53.584;9.938;2023-03-01T04:18:42;11.90;;;6.37;;
3022;SDS011;1521;53.584;9.938;2023-03-01T04:21:08;10.43;;;5.93;;
3022;SDS011;1521;53.584;9.938;2023-03-01T04:23:36;10.10;;;6.23;;
3022;SDS011;1521;53.584;9.938;2023-03-01T04:26:03;7.37;;;5.43;;
3022;SDS011;1521;53.584;9.938;2023-03-01T04:28:33;10.50;;;6.17;;
3022;SDS011;1521;53.584;9.938;2023-03-01T04:31:05;9.83;;;6.10;;
3022;SDS011;1521;53.584;9.938;2023-03-01T04:33:38;10.23;;;5.63;;
3022;SDS011;1521;53.584;9.938;2023-03-01T04:36:25;6.93;;;5.63;;
3022;SDS011;1521;53.584;9.938;2023-03-01T04:38:52;11.27;;;6.20;;
3022;SDS011;1521;53.584;9.938;2023-03-01T04:41:20;10.83;;;5.43;;
3022;SDS011;1521;53.584;9.938;2023-03-01T04:43:46;12.10;;;5.77;;
3022;SDS011;1521;53.584;9.938;2023-03-01T04:46:14;8.17;;;6.10;;
3022;SDS011;1521;53.584;9.938;2023-03-01T04:48:42;11.87;;;6.27;;
3022;SDS011;1521;53.584;9.938;2023-03-01T04:51:08;7.50;;;6.00;;
3022;SDS011;1521;53.584;9.938;2023-03-01T04:53:34;10.10;;;6.07;;
3022;SDS011;1521;53.584;9.938;2023-03-01T04:56:03;8.83;;;5.83;;
3022;SDS011;1521;53.584;9.938;2023-03-01T04:58:29;15.83;;;6.30;;
3022;SDS011;1521;53.584;9.938;2023-03-01T05:00:55;10.97;;;6.10;;
3022;SDS011;1521;53.584;9.938;2023-03-01T05:03:20;15.23;;;6.33;;
3022;SDS011;1521;53.584;9.938;2023-03-01T05:05:47;9.97;;;6.23;;
3022;SDS011;1521;53.584;9.938;2023-03-01T05:08:15;9.93;;;6.60;;
3022;SDS011;1521;53.584;9.938;2023-03-01T05:10:49;8.40;;;6.07;;
3022;SDS011;1521;53.584;9.938;2023-03-01T05:13:17;11.90;;;5.87;;
3022;SDS011;1521;53.584;9.938;2023-03-01T05:15:47;9.10;;;6.43;;
3022;SDS011;1521;53.584;9.938;2023-03-01T05:18:14;8.33;;;5.83;;
3022;SDS011;1521;53.584;9.938;2023-03-01T05:20:40;26.77;;;6.60;;
3022;SDS011;1521;53.584;9.938;2023-03-01T05:23:05;10.30;;;5.80;;
3022;SDS011;1521;53.584;9.938;2023-03-01T05:25:32;12.73;;;5.90;;
3022;SDS011;1521;53.584;9.938;2023-03-01T05:27:59;13.37;;;6.50;;
3022;SDS011;1521;53.584;9.938;2023-03-01T05:30:29;10.10;;;6.00;;
3022;SDS011;1521;53.584;9.938;2023-03-01T05:32:59;11.77;;;6.03;;
3022;SDS011;1521;53.584;9.938;2023-03-01T05:35:25;15.20;;;6.33;;
3022;SDS011;1521;53.584;9.938;2023-03-01T05:37:51;12.87;;;6.90;;
3022;SDS011;1521;53.584;9.938;2023-03-01T05:40:19;11.27;;;6.37;;
3022;SDS011;1521;53.584;9.938;2023-03-01T05:42:47;9.80;;;5.90;;
3022;SDS011;1521;53.584;9.938;2023-03-01T05:45:15;10.47;;;6.07;;
3022;SDS011;1521;53.584;9.938;2023-03-01T05:47:42;9.63;;;6.40;;
3022;SDS011;1521;53.584;9.938;2023-03-01T05:50:19;8.37;;;5.27;;
3022;SDS011;1521;53.584;9.938;2023-03-01T05:52:51;13.90;;;6.13;;
3022;SDS011;1521;53.584;9.938;2023-03-01T05:55:21;13.03;;;6.07;;
3022;SDS011;1521;53.584;9.938;2023-03-01T05:57:47;10.17;;;6.00;;
3022;SDS011;1521;53.584;9.938;2023-03-01T06:00:15;9.90;;;6.20;;
3022;SDS011;1521;53.584;9.938;2023-03-01T06:02:42;12.87;;;6.57;;
3022;SDS011;1521;53.584;9.938;2023-03-01T06:05:09;20.07;;;6.43;;
3022;SDS011;1521;53.584;9.938;2023-03-01T06:07:35;8.60;;;5.63;;
3022;SDS011;1521;53.584;9.938;2023-03-01T06:10:02;28.50;;;5.80;;
3022;SDS011;1521;53.584;9.938;2023-03-01T06:12:35;12.77;;;6.30;;
3022;SDS011;1521;53.584;9.938;2023-03-01T06:15:02;14.03;;;5.77;;
3022;SDS011;1521;53.584;9.938;2023-03-01T06:17:29;12.60;;;5.30;;
3022;SDS011;1521;53.584;9.938;2023-03-01T06:19:57;10.50;;;5.50;;
3022;SDS011;1521;53.584;9.938;2023-03-01T06:22:23;20.20;;;5.70;;
3022;SDS011;1521;53.584;9.938;2023-03-01T06:24:48;8.17;;;5.13;;
3022;SDS011;1521;53.584;9.938;2023-03-01T06:27:14;8.67;;;5.20;;
3022;SDS011;1521;53.584;9.938;2023-03-01T06:29:40;16.63;;;4.90;;
3022;SDS011;1521;53.584;9.938;2023-03-01T06:32:06;8.20;;;4.77;;
3022;SDS011;1521;53.584;9.938;2023-03-01T06:34:33;10.87;;;5.93;;
3022;SDS011;1521;53.584;9.938;2023-03-01T06:36:58;14.67;;;5.33;;
3022;SDS011;1521;53.584;9.938;2023-03-01T06:39:24;8.60;;;5.33;;
3022;SDS011;1521;53.584;9.938;2023-03-01T06:41:50;7.73;;;4.80;;
3022;SDS011;1521;53.584;9.938;2023-03-01T06:44:15;10.20;;;5.90;;
3022;SDS011;1521;53.584;9.938;2023-03-01T06:46:41;12.87;;;5.30;;
3022;SDS011;1521;53.584;9.938;2023-03-01T06:49:06;17.53;;;5.53;;
3022;SDS011;1521;53.584;9.938;2023-03-01T06:51:34;10.80;;;5.70;;
3022;SDS011;1521;53.584;9.938;2023-03-01T06:54:01;8.80;;;5.10;;
3022;SDS011;1521;53.584;9.938;2023-03-01T06:56:28;13.47;;;5.63;;
3022;SDS011;1521;53.584;9.938;2023-03-01T06:58:53;16.67;;;7.23;;
3022;SDS011;1521;53.584;9.938;2023-03-01T07:01:19;33.73;;;15.33;;
3022;SDS011;1521;53.584;9.938;2023-03-01T07:03:44;20.63;;;8.60;;
3022;SDS011;1521;53.584;9.938;2023-03-01T07:06:11;9.93;;;5.93;;
3022;SDS011;1521;53.584;9.938;2023-03-01T07:08:36;11.33;;;6.90;;
3022;SDS011;1521;53.584;9.938;2023-03-01T07:11:02;12.90;;;6.50;;
3022;SDS011;1521;53.584;9.938;2023-03-01T07:13:28;19.30;;;6.07;;
3022;SDS011;1521;53.584;9.938;2023-03-01T07:15:54;11.30;;;6.43;;
3022;SDS011;1521;53.584;9.938;2023-03-01T07:18:20;10.27;;;6.43;;
3022;SDS011;1521;53.584;9.938;2023-03-01T07:20:45;11.33;;;5.90;;
3022;SDS011;1521;53.584;9.938;2023-03-01T07:23:11;10.77;;;6.23;;
3022;SDS011;1521;53.584;9.938;2023-03-01T07:25:37;10.17;;;6.00;;
3022;SDS011;1521;53.584;9.938;2023-03-01T07:28:02;12.03;;;6.83;;
3022;SDS011;1521;53.584;9.938;2023-03-01T07:30:28;12.50;;;7.23;;
3022;SDS011;1521;53.584;9.938;2023-03-01T07:32:54;15.73;;;7.40;;
3022;SDS011;1521;53.584;9.938;2023-03-01T07:35:20;10.90;;;7.30;;
3022;SDS011;1521;53.584;9.938;2023-03-01T07:37:47;19.63;;;8.23;;
3022;SDS011;1521;53.584;9.938;2023-03-01T07:40:13;11.87;;;7.17;;
3022;SDS011;1521;53.584;9.938;2023-03-01T07:42:38;13.30;;;7.50;;
3022;SDS011;1521;53.584;9.938;2023-03-01T07:45:04;17.27;;;9.23;;
3022;SDS011;1521;53.584;9.938;2023-03-01T07:47:31;15.13;;;9.03;;
3022;SDS011;1521;53.584;9.938;2023-03-01T07:49:57;16.20;;;8.90;;
3022;SDS011;1521;53.584;9.938;2023-03-01T07:52:22;17.53;;;8.67;;
3022;SDS011;1521;53.584;9.938;2023-03-01T07:54:48;18.83;;;9.10;;
3022;SDS011;1521;53.584;9.938;2023-03-01T07:57:14;15.90;;;9.60;;
3022;SDS011;1521;53.584;9.938;2023-03-01T07:59:39;20.87;;;9.93;;
3022;SDS011;1521;53.584;9.938;2023-03-01T08:02:05;13.97;;;9.73;;
3022;SDS011;1521;53.584;9.938;2023-03-01T08:04:31;18.70;;;11.00;;
3022;SDS011;1521;53.584;9.938;2023-03-01T08:06:57;17.93;;;10.87;;
3022;SDS011;1521;53.584;9.938;2023-03-01T08:09:23;19.30;;;10.93;;
3022;SDS011;1521;53.584;9.938;2023-03-01T08:11:49;19.33;;;11.23;;
3022;SDS011;1521;53.584;9.938;2023-03-01T08:14:15;17.97;;;11.70;;
3022;SDS011;1521;53.584;9.938;2023-03-01T08:16:41;23.80;;;11.60;;
3022;SDS011;1521;53.584;9.938;2023-03-01T08:19:07;24.80;;;13.27;;
3022;SDS011;1521;53.584;9.938;2023-03-01T08:21:34;23.13;;;13.00;;
3022;SDS011;1521;53.584;9.938;2023-03-01T08:24:00;21.87;;;13.50;;
3022;SDS011;1521;53.584;9.938;2023-03-01T08:26:26;20.47;;;13.83;;
3022;SDS011;1521;53.584;9.938;2023-03-01T08:28:52;24.93;;;14.10;;
3022;SDS011;1521;53.584;9.938;2023-03-01T08:31:19;20.17;;;13.00;;
3022;SDS011;1521;53.584;9.938;2023-03-01T08:33:47;24.00;;;14.20;;
3022;SDS011;1521;53.584;9.938;2023-03-01T08:36:16;20.17;;;13.33;;
3022;SDS011;1521;53.584;9.938;2023-03-01T08:38:42;23.23;;;13.60;;
3022;SDS011;1521;53.584;9.938;2023-03-01T08:41:09;24.90;;;13.80;;
3022;SDS011;1521;53.584;9.938;2023-03-01T08:43:34;25.83;;;12.43;;
3022;SDS011;1521;53.584;9.938;2023-03-01T08:46:00;20.70;;;12.80;;
3022;SDS011;1521;53.584;9.938;2023-03-01T08:48:27;21.73;;;14.40;;
3022;SDS011;1521;53.584;9.938;2023-03-01T08:50:53;27.87;;;14.60;;
3022;SDS011;1521;53.584;9.938;2023-03-01T08:53:18;24.13;;;13.50;;
3022;SDS011;1521;53.584;9.938;2023-03-01T08:55:44;22.07;;;14.60;;
3022;SDS011;1521;53.584;9.938;2023-03-01T08:58:10;26.00;;;15.80;;
3022;SDS011;1521;53.584;9.938;2023-03-01T09:00:35;24.70;;;15.47;;
3022;SDS011;1521;53.584;9.938;2023-03-01T09:03:01;27.57;;;15.90;;
3022;SDS011;1521;53.584;9.938;2023-03-01T09:05:27;26.03;;;15.20;;
3022;SDS011;1521;53.584;9.938;2023-03-01T09:07:52;22.80;;;15.30;;
3022;SDS011;1521;53.584;9.938;2023-03-01T09:10:18;30.00;;;15.23;;
3022;SDS011;1521;53.584;9.938;2023-03-01T09:12:43;26.23;;;16.10;;
3022;SDS011;1521;53.584;9.938;2023-03-01T09:15:09;23.20;;;15.07;;
3022;SDS011;1521;53.584;9.938;2023-03-01T09:17:35;24.60;;;15.40;;
3022;SDS011;1521;53.584;9.938;2023-03-01T09:20:01;23.70;;;15.90;;
3022;SDS011;1521;53.584;9.938;2023-03-01T09:22:26;22.40;;;15.10;;
3022;SDS011;1521;53.584;9.938;2023-03-01T09:24:52;22.83;;;13.80;;
3022;SDS011;1521;53.584;9.938;2023-03-01T09:27:17;25.53;;;15.27;;
3022;SDS011;1521;53.584;9.938;2023-03-01T09:29:44;20.77;;;13.50;;
3022;SDS011;1521;53.584;9.938;2023-03-01T09:32:10;23.50;;;14.73;;
3022;SDS011;1521;53.584;9.938;2023-03-01T09:34:36;22.27;;;14.83;;
3022;SDS011;1521;53.584;9.938;2023-03-01T09:37:21;34.10;;;14.07;;
3022;SDS011;1521;53.584;9.938;2023-03-01T09:39:47;25.07;;;15.00;;
3022;SDS011;1521;53.584;9.938;2023-03-01T09:42:13;25.80;;;16.07;;
3022;SDS011;1521;53.584;9.938;2023-03-01T09:44:43;24.40;;;15.40;;
3022;SDS011;1521;53.584;9.938;2023-03-01T09:47:26;26.23;;;16.60;;
3022;SDS011;1521;53.584;9.938;2023-03-01T09:50:16;24.47;;;15.80;;
3022;SDS011;1521;53.584;9.938;2023-03-01T09:55:08;27.50;;;16.80;;
3022;SDS011;1521;53.584;9.938;2023-03-01T09:57:55;28.50;;;16.33;;
3022;SDS011;1521;53.584;9.938;2023-03-01T10:00:37;21.07;;;15.03;;
3022;SDS011;1521;53.584;9.938;2023-03-01T10:14:07;26.53;;;13.77;;
3022;SDS011;1521;53.584;9.938;2023-03-01T10:16:57;20.67;;;12.93;;
3022;SDS011;1521;53.584;9.938;2023-03-01T10:22:05;23.10;;;13.37;;
3022;SDS011;1521;53.584;9.938;2023-03-01T10:24:46;22.90;;;14.83;;
3022;SDS011;1521;53.584;9.938;2023-03-01T10:27:15;25.63;;;14.87;;
3022;SDS011;1521;53.584;9.938;2023-03-01T10:30:02;24.07;;;13.47;;
3022;SDS011;1521;53.584;9.938;2023-03-01T10:32:38;24.33;;;13.40;;
3022;SDS011;1521;53.584;9.938;2023-03-01T10:37:56;20.43;;;12.60;;
3022;SDS011;1521;53.584;9.938;2023-03-01T10:40:33;19.53;;;12.43;;
3022;SDS011;1521;53.584;9.938;2023-03-01T10:43:04;19.43;;;11.33;;
3022;SDS011;1521;53.584;9.938;2023-03-01T10:45:37;16.90;;;10.70;;
3022;SDS011;1521;53.584;9.938;2023-03-01T10:50:39;15.00;;;9.57;;
3022;SDS011;1521;53.584;9.938;2023-03-01T10:53:16;17.70;;;10.17;;
3022;SDS011;1521;53.584;9.938;2023-03-01T10:56:12;15.97;;;9.20;;
3022;SDS011;1521;53.584;9.938;2023-03-01T10:58:40;12.80;;;8.60;;
3022;SDS011;1521;53.584;9.938;2023-03-01T11:01:29;14.33;;;8.87;;
3022;SDS011;1521;53.584;9.938;2023-03-01T11:04:17;15.47;;;9.50;;
3022;SDS011;1521;53.584;9.938;2023-03-01T11:06:43;13.70;;;8.53;;
3022;SDS011;1521;53.584;9.938;2023-03-01T11:09:22;15.27;;;8.27;;
3022;SDS011;1521;53.584;9.938;2023-03-01T11:11:55;13.67;;;8.10;;
3022;SDS011;1521;53.584;9.938;2023-03-01T11:14:24;17.43;;;9.07;;
3022;SDS011;1521;53.584;9.938;2023-03-01T11:16:58;14.70;;;8.03;;
3022;SDS011;1521;53.584;9.938;2023-03-01T11:19:37;13.37;;;9.00;;
3022;SDS011;1521;53.584;9.938;2023-03-01T11:22:07;12.50;;;7.60;;
3022;SDS011;1521;53.584;9.938;2023-03-01T11:27:13;12.00;;;8.00;;
3022;SDS011;1521;53.584;9.938;2023-03-01T11:29:45;13.03;;;7.60;;
3022;SDS011;1521;53.584;9.938;2023-03-01T11:32:25;9.90;;;7.40;;
3022;SDS011;1521;53.584;9.938;2023-03-01T11:34:59;11.73;;;8.80;;
3022;SDS011;1521;53.584;9.938;2023-03-01T11:37:49;13.03;;;7.97;;
3022;SDS011;1521;53.584;9.938;2023-03-01T11:40:37;9.97;;;7.03;;
3022;SDS011;1521;53.584;9.938;2023-03-01T11:43:22;11.37;;;7.80;;
3022;SDS011;1521;53.584;9.938;2023-03-01T12:00:21;7.47;;;6.00;;
3022;SDS011;1521;53.584;9.938;2023-03-01T12:03:27;9.60;;;5.93;;
3022;SDS011;1521;53.584;9.938;2023-03-01T12:14:33;9.93;;;5.90;;
3022;SDS011;1521;53.584;9.938;2023-03-01T12:22:49;11.43;;;6.33;;
3022;SDS011;1521;53.584;9.938;2023-03-01T12:31:31;7.90;;;5.90;;
3022;SDS011;1521;53.584;9.938;2023-03-01T12:50:21;9.07;;;7.10;;
3022;SDS011;1521;53.584;9.938;2023-03-01T13:06:18;7.77;;;6.10;;
3022;SDS011;1521;53.584;9.938;2023-03-01T13:11:26;11.40;;;6.50;;
3022;SDS011;1521;53.584;9.938;2023-03-01T13:13:52;9.47;;;6.50;;
3022;SDS011;1521;53.584;9.938;2023-03-01T13:16:50;10.03;;;7.63;;
3022;SDS011;1521;53.584;9.938;2023-03-01T13:19:24;11.20;;;6.73;;
3022;SDS011;1521;53.584;9.938;2023-03-01T13:21:52;7.60;;;6.60;;
3022;SDS011;1521;53.584;9.938;2023-03-01T13:24:29;12.13;;;7.30;;
3022;SDS011;1521;53.584;9.938;2023-03-01T13:29:49;11.03;;;7.00;;
3022;SDS011;1521;53.584;9.938;2023-03-01T13:32:48;10.60;;;7.60;;
3022;SDS011;1521;53.584;9.938;2023-03-01T13:37:44;11.67;;;7.50;;
3022;SDS011;1521;53.584;9.938;2023-03-01T13:42:47;10.87;;;7.67;;
3022;SDS011;1521;53.584;9.938;2023-03-01T13:48:20;10.20;;;7.10;;
3022;SDS011;1521;53.584;9.938;2023-03-01T13:50:50;10.23;;;6.60;;
3022;SDS011;1521;53.584;9.938;2023-03-01T13:53:18;11.40;;;7.23;;
3022;SDS011;1521;53.584;9.938;2023-03-01T13:55:48;12.17;;;7.33;;
3022;SDS011;1521;53.584;9.938;2023-03-01T13:58:22;9.03;;;6.00;;
3022;SDS011;1521;53.584;9.938;2023-03-01T14:00:58;8.80;;;6.60;;
3022;SDS011;1521;53.584;9.938;2023-03-01T14:03:29;12.90;;;7.10;;
3022;SDS011;1521;53.584;9.938;2023-03-01T14:05:58;8.30;;;6.40;;
3022;SDS011;1521;53.584;9.938;2023-03-01T14:08:25;9.47;;;5.70;;
3022;SDS011;1521;53.584;9.938;2023-03-01T14:16:51;8.23;;;5.83;;
3022;SDS011;1521;53.584;9.938;2023-03-01T14:19:25;6.93;;;4.73;;
3022;SDS011;1521;53.584;9.938;2023-03-01T14:21:59;6.37;;;4.80;;
3022;SDS011;1521;53.584;9.938;2023-03-01T14:24:27;8.87;;;5.17;;
3022;SDS011;1521;53.584;9.938;2023-03-01T14:26:57;7.33;;;5.23;;
3022;SDS011;1521;53.584;9.938;2023-03-01T14:29:24;6.30;;;5.00;;
3022;SDS011;1521;53.584;9.938;2023-03-01T14:31:50;7.43;;;5.37;;
3022;SDS011;1521;53.584;9.938;2023-03-01T14:34:20;5.70;;;4.67;;
3022;SDS011;1521;53.584;9.938;2023-03-01T14:36:47;9.23;;;5.83;;
3022;SDS011;1521;53.584;9.938;2023-03-01T14:39:20;9.63;;;6.30;;
3022;SDS011;1521;53.584;9.938;2023-03-01T14:41:51;9.73;;;6.67;;
3022;SDS011;1521;53.584;9.938;2023-03-01T14:44:19;8.00;;;6.13;;
3022;SDS011;1521;53.584;9.938;2023-03-01T14:46:51;8.23;;;5.67;;
3022;SDS011;1521;53.584;9.938;2023-03-01T14:49:19;10.13;;;5.80;;
3022;SDS011;1521;53.584;9.938;2023-03-01T14:52:00;7.00;;;5.40;;
3022;SDS011;1521;53.584;9.938;2023-03-01T14:54:37;10.57;;;6.87;;
3022;SDS011;1521;53.584;9.938;2023-03-01T14:57:14;12.20;;;7.40;;
3022;SDS011;1521;53.584;9.938;2023-03-01T14:59:41;8.83;;;6.37;;
3022;SDS011;1521;53.584;9.938;2023-03-01T15:02:08;14.57;;;6.90;;
3022;SDS011;1521;53.584;9.938;2023-03-01T15:04:41;9.77;;;6.47;;
3022;SDS011;1521;53.584;9.938;2023-03-01T15:07:09;10.27;;;6.97;;
3022;SDS011;1521;53.584;9.938;2023-03-01T15:09:39;11.20;;;7.20;;
3022;SDS011;1521;53.584;9.938;2023-03-01T15:17:54;15.13;;;7.73;;
3022;SDS011;1521;53.584;9.938;2023-03-01T15:20:22;11.70;;;7.30;;
3022;SDS011;1521;53.584;9.938;2023-03-01T15:22:51;11.63;;;7.27;;
3022;SDS011;1521;53.584;9.938;2023-03-01T15:25:18;12.37;;;6.63;;
3022;SDS011;1521;53.584;9.938;2023-03-01T15:27:46;11.07;;;7.50;;
3022;SDS011;1521;53.584;9.938;2023-03-01T15:30:13;14.00;;;7.63;;
3022;SDS011;1521;53.584;9.938;2023-03-01T15:32:45;13.80;;;8.60;;
3022;SDS011;1521;53.584;9.938;2023-03-01T15:38:04;12.93;;;8.23;;
3022;SDS011;1521;53.584;9.938;2023-03-01T15:40:51;15.70;;;9.00;;
3022;SDS011;1521;53.584;9.938;2023-03-01T15:46:16;17.17;;;10.43;;
3022;SDS011;1521;53.584;9.938;2023-03-01T15:48:44;18.00;;;10.80;;
3022;SDS011;1521;53.584;9.938;2023-03-01T15:51:15;17.87;;;10.50;;
3022;SDS011;1521;53.584;9.938;2023-03-01T15:53:41;17.80;;;10.80;;
3022;SDS011;1521;53.584;9.938;2023-03-01T15:56:13;21.83;;;13.73;;
3022;SDS011;1521;53.584;9.938;2023-03-01T15:58:38;20.60;;;10.87;;
3022;SDS011;1521;53.584;9.938;2023-03-01T16:01:08;22.50;;;11.53;;
3022;SDS011;1521;53.584;9.938;2023-03-01T16:03:37;21.93;;;12.03;;
3022;SDS011;1521;53.584;9.938;2023-03-01T16:06:03;21.47;;;12.00;;
3022;SDS011;1521;53.584;9.938;2023-03-01T16:08:29;21.67;;;12.37;;
3022;SDS011;1521;53.584;9.938;2023-03-01T16:10:54;24.40;;;12.90;;
3022;SDS011;1521;53.584;9.938;2023-03-01T16:13:20;21.77;;;12.60;;
3022;SDS011;1521;53.584;9.938;2023-03-01T16:15:46;25.13;;;14.07;;
3022;SDS011;1521;53.584;9.938;2023-03-01T16:18:11;22.37;;;12.60;;
3022;SDS011;1521;53.584;9.938;2023-03-01T16:20:37;20.47;;;13.10;;
3022;SDS011;1521;53.584;9.938;2023-03-01T16:23:04;22.03;;;12.83;;
3022;SDS011;1521;53.584;9.938;2023-03-01T16:25:31;21.63;;;12.80;;
3022;SDS011;1521;53.584;9.938;2023-03-01T16:27:58;24.40;;;12.77;;
3022;SDS011;1521;53.584;9.938;2023-03-01T16:30:26;24.10;;;12.73;;
3022;SDS011;1521;53.584;9.938;2023-03-01T16:32:52;21.60;;;12.00;;
3022;SDS011;1521;53.584;9.938;2023-03-01T16:35:19;24.97;;;12.43;;
3022;SDS011;1521;53.584;9.938;2023-03-01T16:37:46;21.13;;;12.30;;
3022;SDS011;1521;53.584;9.938;2023-03-01T16:40:16;21.33;;;11.10;;
3022;SDS011;1521;53.584;9.938;2023-03-01T16:42:45;19.10;;;10.80;;
3022;SDS011;1521;53.584;9.938;2023-03-01T16:45:15;18.07;;;9.83;;
3022;SDS011;1521;53.584;9.938;2023-03-01T16:47:41;17.70;;;10.20;;
3022;SDS011;1521;53.584;9.938;2023-03-01T16:50:06;15.97;;;9.33;;
3022;SDS011;1521;53.584;9.938;2023-03-01T16:52:33;15.70;;;9.73;;
3022;SDS011;1521;53.584;9.938;2023-03-01T16:54:58;15.73;;;9.67;;
3022;SDS011;1521;53.584;9.938;2023-03-01T16:57:24;15.10;;;9.93;;
3022;SDS011;1521;53.584;9.938;2023-03-01T16:59:53;16.67;;;9.07;;
3022;SDS011;1521;53.584;9.938;2023-03-01T17:02:19;17.13;;;9.63;;
3022;SDS011;1521;53.584;9.938;2023-03-01T17:04:45;13.33;;;9.27;;
3022;SDS011;1521;53.584;9.938;2023-03-01T17:07:16;17.43;;;9.63;;
3022;SDS011;1521;53.584;9.938;2023-03-01T17:09:42;14.80;;;8.57;;
3022;SDS011;1521;53.584;9.938;2023-03-01T17:12:07;13.60;;;8.80;;
3022;SDS011;1521;53.584;9.938;2023-03-01T17:14:34;14.50;;;9.77;;
3022;SDS011;1521;53.584;9.938;2023-03-01T17:16:59;14.90;;;8.50;;
3022;SDS011;1521;53.584;9.938;2023-03-01T17:19:27;16.33;;;9.83;;
3022;SDS011;1521;53.584;9.938;2023-03-01T17:21:53;14.10;;;8.83;;